sensor_id;sensor_type;location;lat;lon;timestamp;pressure;altitude;pressure_sealevel;temperature;humidity
9077;BME280;4574;51.072;17.174;2023-04-24T00:00:37;99115.09;;;14.10;100.00
9077;BME280;4574;51.072;17.174;2023-04-24T00:03:07;99110.66;;;14.17;100.00
9077;BME280;4574;51.072;17.174;2023-04-24T00:05:37;99099.19;;;14.17;100.00
9077;BME280;4574;51.072;17.174;2023-04-24T00:08:08;99094.25;;;14.14;100.00
9077;BME280;4574;51.072;17.174;2023-04-24T00:10:37;99101.06;;;14.23;100.00
9077;BME280;4574;51.072;17.174;2023-04-24T00:13:05;99091.69;;;14.27;100.00
9077;BME280;4574;51.072;17.174;2023-04-24T00:15:34;99108.28;;;14.29;100.00
9077;BME280;4574;51.072;17.174;2023-04-24T00:18:03;99086.97;;;14.29;100.00
9077;BME280;4574;51.072;17.174;2023-04-24T00:20:32;99096.44;;;14.38;100.00
9077;BME280;4574;51.072;17.174;2023-04-24T00:23:02;99085.78;;;14.38;100.00
9077;BME280;4574;51.072;17.174;2023-04-24T00:25:32;99089.53;;;14.50;100.00
9077;BME280;4574;51.072;17.174;2023-04-24T00:28:01;99083.00;;;14.52;100.00
9077;BME280;4574;51.072;17.174;2023-04-24T00:30:29;99083.81;;;14.53;100.00
9077;BME280;4574;51.072;17.174;2023-04-24T00:32:58;99081.13;;;14.46;100.00
9077;BME280;4574;51.072;17.174;2023-04-24T00:35:27;99073.94;;;14.47;100.00
9077;BME280;4574;51.072;17.174;2023-04-24T00:37:55;99083.78;;;14.46;100.00
9077;BME280;4574;51.072;17.174;2023-04-24T00:40:27;99070.09;;;14.49;100.00
9077;BME280;4574;51.072;17.174;2023-04-24T00:42:58;99067.59;;;14.48;100.00
9077;BME280;4574;51.072;17.174;2023-04-24T00:45:26;99063.69;;;14.44;100.00
9077;BME280;4574;51.072;17.174;2023-04-24T00:47:55;99058.75;;;14.41;100.00
9077;BME280;4574;51.072;17.174;2023-04-24T00:50:24;99057.91;;;14.34;100.00
9077;BME280;4574;51.072;17.174;2023-04-24T00:52:55;99056.69;;;14.30;100.00
9077;BME280;4574;51.072;17.174;2023-04-24T00:55:25;99056.63;;;14.23;100.00
9077;BME280;4574;51.072;17.174;2023-04-24T00:57:55;99064.81;;;14.22;100.00
9077;BME280;4574;51.072;17.174;2023-04-24T01:00:25;99047.53;;;14.11;100.00
9077;BME280;4574;51.072;17.174;2023-04-24T01:02:54;99054.56;;;14.19;100.00
9077;BME280;4574;51.072;17.174;2023-04-24T01:05:24;99052.50;;;14.14;100.00
9077;BME280;4574;51.072;17.174;2023-04-24T01:07:53;99054.88;;;14.03;100.00
9077;BME280;4574;51.072;17.174;2023-04-24T01:10:22;99047.53;;;14.05;100.00
9077;BME280;4574;51.072;17.174;2023-04-24T01:12:53;99050.81;;;14.07;100.00
9077;BME280;4574;51.072;17.174;2023-04-24T01:15:21;99044.47;;;14.08;100.00
9077;BME280;4574;51.072;17.174;2023-04-24T01:17:51;99044.66;;;14.06;100.00
9077;BME280;4574;51.072;17.174;2023-04-24T01:20:21;99046.69;;;14.04;100.00
9077;BME280;4574;51.072;17.174;2023-04-24T01:22:51;99041.75;;;14.01;100.00
9077;BME280;4574;51.072;17.174;2023-04-24T01:25:20;99055.28;;;14.06;100.00
9077;BME280;4574;51.072;17.174;2023-04-24T01:27:49;99052.22;;;14.09;100.00
9077;BME280;4574;51.072;17.174;2023-04-24T01:30:18;99046.50;;;14.12;100.00
9077;BME280;4574;51.072;17.174;2023-04-24T01:32:46;99049.78;;;14.08;100.00
9077;BME280;4574;51.072;17.174;2023-04-24T01:35:15;99045.47;;;14.07;100.00
9077;BME280;4574;51.072;17.174;2023-04-24T01:37:44;99043.84;;;14.06;100.00
9077;BME280;4574;51.072;17.174;2023-04-24T01:40:14;99036.88;;;14.11;100.00
9077;BME280;4574;51.072;17.174;2023-04-24T01:42:44;99018.00;;;14.00;100.00
9077;BME280;4574;51.072;17.174;2023-04-24T01:45:14;99025.41;;;14.04;100.00
9077;BME280;4574;51.072;17.174;2023-04-24T01:47:44;99036.66;;;14.06;100.00
9077;BME280;4574;51.072;17.174;2023-04-24T01:50:13;99029.91;;;14.04;100.00
9077;BME280;4574;51.072;17.174;2023-04-24T01:52:42;99022.94;;;14.03;100.00
9077;BME280;4574;51.072;17.174;2023-04-24T01:55:11;99034.44;;;14.10;100.00
9077;BME280;4574;51.072;17.174;2023-04-24T01:57:41;99030.31;;;14.07;100.00
9077;BME280;4574;51.072;17.174;2023-04-24T02:00:10;99015.94;;;13.95;100.00
9077;BME280;4574;51.072;17.174;2023-04-24T02:02:40;99027.88;;;14.06;100.00
9077;BME280;4574;51.072;17.174;2023-04-24T02:05:13;99025.22;;;14.06;100.00
9077;BME280;4574;51.072;17.174;2023-04-24T02:07:42;99025.22;;;14.06;100.00
9077;BME280;4574;51.072;17.174;2023-04-24T02:10:10;99025.63;;;14.09;100.00
9077;BME280;4574;51.072;17.174;2023-04-24T02:12:40;99025.63;;;14.09;100.00
9077;BME280;4574;51.072;17.174;2023-04-24T02:15:10;99021.75;;;14.12;100.00
9077;BME280;4574;51.072;17.174;2023-04-24T02:17:39;99026.47;;;14.10;100.00
9077;BME280;4574;51.072;17.174;2023-04-24T02:20:08;99021.94;;;14.04;100.00
9077;BME280;4574;51.072;17.174;2023-04-24T02:22:42;99018.00;;;14.00;100.00
9077;BME280;4574;51.072;17.174;2023-04-24T02:25:10;99020.06;;;14.04;100.00
9077;BME280;4574;51.072;17.174;2023-04-24T02:27:39;99018.88;;;14.07;100.00
9077;BME280;4574;51.072;17.174;2023-04-24T02:30:10;99009.03;;;14.07;100.00
9077;BME280;4574;51.072;17.174;2023-04-24T02:32:39;99009.66;;;14.09;100.00
9077;BME280;4574;51.072;17.174;2023-04-24T02:35:08;98999.63;;;14.05;100.00
9077;BME280;4574;51.072;17.174;2023-04-24T02:37:37;99004.16;;;14.11;100.00
9077;BME280;4574;51.072;17.174;2023-04-24T02:40:07;99000.03;;;14.08;100.00
9077;BME280;4574;51.072;17.174;2023-04-24T02:42:36;98998.00;;;14.10;100.00
9077;BME280;4574;51.072;17.174;2023-04-24T02:45:05;98986.53;;;14.10;100.00
9077;BME280;4574;51.072;17.174;2023-04-24T02:47:35;98988.56;;;14.08;100.00
9077;BME280;4574;51.072;17.174;2023-04-24T02:50:06;98983.66;;;14.05;100.00
9077;BME280;4574;51.072;17.174;2023-04-24T02:52:35;98979.34;;;14.04;100.00
9077;BME280;4574;51.072;17.174;2023-04-24T02:55:04;98979.13;;;13.99;100.00
9077;BME280;4574;51.072;17.174;2023-04-24T02:57:34;98972.13;;;13.91;100.00
9077;BME280;4574;51.072;17.174;2023-04-24T03:00:04;98973.56;;;13.94;100.00
9077;BME280;4574;51.072;17.174;2023-04-24T03:02:36;98971.94;;;13.93;100.00
9077;BME280;4574;51.072;17.174;2023-04-24T03:05:05;98972.56;;;13.95;100.00
9077;BME280;4574;51.072;17.174;2023-04-24T03:07:34;98972.97;;;13.98;100.00
9077;BME280;4574;51.072;17.174;2023-04-24T03:10:04;98975.03;;;14.03;100.00
9077;BME280;4574;51.072;17.174;2023-04-24T03:12:33;98979.75;;;14.07;100.00
9077;BME280;4574;51.072;17.174;2023-04-24T03:15:02;98980.38;;;14.09;100.00
9077;BME280;4574;51.072;17.174;2023-04-24T03:17:30;98982.47;;;14.14;100.00
9077;BME280;4574;51.072;17.174;2023-04-24T03:20:01;98977.13;;;14.14;100.00
9077;BME280;4574;51.072;17.174;2023-04-24T03:22:30;98979.03;;;14.20;100.00
9077;BME280;4574;51.072;17.174;2023-04-24T03:24:59;98973.31;;;14.23;100.00
9077;BME280;4574;51.072;17.174;2023-04-24T03:27:28;98968.78;;;14.23;100.00
9077;BME280;4574;51.072;17.174;2023-04-24T03:29:57;98976.38;;;14.26;100.00
9077;BME280;4574;51.072;17.174;2023-04-24T03:32:26;98979.47;;;14.30;100.00
9077;BME280;4574;51.072;17.174;2023-04-24T03:34:55;98974.34;;;14.28;100.00
9077;BME280;4574;51.072;17.174;2023-04-24T03:37:25;98970.88;;;14.28;100.00
9077;BME280;4574;51.072;17.174;2023-04-24T03:39:54;98980.91;;;14.26;100.00
9077;BME280;4574;51.072;17.174;2023-04-24T03:42:22;98987.25;;;14.25;100.00
9077;BME280;4574;51.072;17.174;2023-04-24T03:44:51;98980.50;;;14.29;100.00
9077;BME280;4574;51.072;17.174;2023-04-24T03:47:19;98984.19;;;14.28;100.00
9077;BME280;4574;51.072;17.174;2023-04-24T03:49:49;98994.81;;;14.28;100.00
9077;BME280;4574;51.072;17.174;2023-04-24T03:52:18;99001.78;;;14.29;100.00
9077;BME280;4574;51.072;17.174;2023-04-24T03:54:47;99003.44;;;14.30;100.00
9077;BME280;4574;51.072;17.174;2023-04-24T03:57:16;99015.91;;;14.29;100.00
9077;BME280;4574;51.072;17.174;2023-04-24T03:59:45;99014.09;;;14.30;100.00
9077;BME280;4574;51.072;17.174;2023-04-24T04:02:13;99017.38;;;14.32;100.00
9077;BME280;4574;51.072;17.174;2023-04-24T04:04:42;99012.44;;;14.29;100.00
9077;BME280;4574;51.072;17.174;2023-04-24T04:07:11;99008.31;;;14.20;100.00
9077;BME280;4574;51.072;17.174;2023-04-24T04:09:39;99000.91;;;14.15;100.00
9077;BME280;4574;51.072;17.174;2023-04-24T04:12:10;99007.81;;;14.10;100.00
9077;BME280;4574;51.072;17.174;2023-04-24T04:14:39;99006.53;;;13.99;100.00
9077;BME280;4574;51.072;17.174;2023-04-24T04:17:08;99007.56;;;13.98;100.00
9077;BME280;4574;51.072;17.174;2023-04-24T04:19:36;99004.50;;;13.95;100.00
9077;BME280;4574;51.072;17.174;2023-04-24T04:22:05;99003.25;;;13.91;100.00
9077;BME280;4574;51.072;17.174;2023-04-24T04:24:35;99000.97;;;13.88;100.00
9077;BME280;4574;51.072;17.174;2023-04-24T04:27:05;98999.94;;;13.89;100.00
9077;BME280;4574;51.072;17.174;2023-04-24T04:29:35;98999.94;;;13.89;100.00
9077;BME280;4574;51.072;17.174;2023-04-24T04:32:04;98994.19;;;13.85;100.00
9077;BME280;4574;51.072;17.174;2023-04-24T04:34:33;98995.66;;;13.88;100.00
9077;BME280;4574;51.072;17.174;2023-04-24T04:37:01;98991.75;;;13.84;100.00
9077;BME280;4574;51.072;17.174;2023-04-24T04:39:30;98985.56;;;13.77;100.00
9077;BME280;4574;51.072;17.174;2023-04-24T04:41:58;98998.09;;;13.83;100.00
9077;BME280;4574;51.072;17.174;2023-04-24T04:44:27;98994.41;;;13.84;100.00
9077;BME280;4574;51.072;17.174;2023-04-24T04:46:59;98993.44;;;13.98;100.00
9077;BME280;4574;51.072;17.174;2023-04-24T04:49:27;99001.78;;;14.29;100.00
9077;BME280;4574;51.072;17.174;2023-04-24T04:51:56;99000.59;;;14.38;100.00
9077;BME280;4574;51.072;17.174;2023-04-24T04:54:24;99001.78;;;14.29;100.00
9077;BME280;4574;51.072;17.174;2023-04-24T04:56:53;99007.06;;;14.22;100.00
9077;BME280;4574;51.072;17.174;2023-04-24T04:59:21;99012.75;;;14.13;100.00
9077;BME280;4574;51.072;17.174;2023-04-24T05:01:50;99008.63;;;14.10;100.00
9077;BME280;4574;51.072;17.174;2023-04-24T05:04:20;99014.56;;;14.06;100.00
9077;BME280;4574;51.072;17.174;2023-04-24T05:06:49;99009.81;;;14.01;100.00
9077;BME280;4574;51.072;17.174;2023-04-24T05:09:18;99007.78;;;14.03;100.00
9077;BME280;4574;51.072;17.174;2023-04-24T05:11:46;99016.59;;;14.04;100.00
9077;BME280;4574;51.072;17.174;2023-04-24T05:14:15;99001.88;;;14.08;100.00
9077;BME280;4574;51.072;17.174;2023-04-24T05:16:44;99003.53;;;14.09;100.00
9077;BME280;4574;51.072;17.174;2023-04-24T05:19:13;99009.47;;;14.11;100.00
9077;BME280;4574;51.072;17.174;2023-04-24T05:21:43;99004.59;;;14.14;100.00
9077;BME280;4574;51.072;17.174;2023-04-24T05:24:12;99004.41;;;14.16;100.00
9077;BME280;4574;51.072;17.174;2023-04-24T05:26:40;98996.41;;;14.16;100.00
9077;BME280;4574;51.072;17.174;2023-04-24T05:29:10;99000.91;;;14.15;100.00
9077;BME280;4574;51.072;17.174;2023-04-24T05:31:38;98980.59;;;14.08;100.00
9077;BME280;4574;51.072;17.174;2023-04-24T05:34:09;98994.38;;;14.18;100.00
9077;BME280;4574;51.072;17.174;2023-04-24T05:36:38;98995.19;;;14.18;100.00
9077;BME280;4574;51.072;17.174;2023-04-24T05:39:08;99000.94;;;14.22;100.00
9077;BME280;4574;51.072;17.174;2023-04-24T05:41:37;99003.22;;;14.25;100.00
9077;BME280;4574;51.072;17.174;2023-04-24T05:44:05;99012.03;;;14.32;100.00
9077;BME280;4574;51.072;17.174;2023-04-24T05:46:34;99014.31;;;14.35;100.00
9077;BME280;4574;51.072;17.174;2023-04-24T05:49:03;99010.00;;;14.40;100.00
9077;BME280;4574;51.072;17.174;2023-04-24T05:51:31;99010.44;;;14.44;100.00
9077;BME280;4574;51.072;17.174;2023-04-24T05:54:00;99013.31;;;14.49;100.00
9077;BME280;4574;51.072;17.174;2023-04-24T05:56:31;99011.72;;;14.54;100.00
9077;BME280;4574;51.072;17.174;2023-04-24T05:59:00;99014.38;;;14.61;100.00
9077;BME280;4574;51.072;17.174;2023-04-24T06:01:29;99028.13;;;14.71;100.00
9077;BME280;4574;51.072;17.174;2023-04-24T06:03:58;99021.59;;;14.79;100.00
9077;BME280;4574;51.072;17.174;2023-04-24T06:06:27;99025.69;;;14.88;100.00
9077;BME280;4574;51.072;17.174;2023-04-24T06:08:55;99031.47;;;14.98;100.00
9077;BME280;4574;51.072;17.174;2023-04-24T06:11:25;99021.44;;;15.07;100.00
9077;BME280;4574;51.072;17.174;2023-04-24T06:13:56;99028.59;;;15.19;99.79
9077;BME280;4574;51.072;17.174;2023-04-24T06:16:24;99034.34;;;15.23;100.00
9077;BME280;4574;51.072;17.174;2023-04-24T06:18:53;99025.75;;;15.27;100.00
9077;BME280;4574;51.072;17.174;2023-04-24T06:21:22;99019.03;;;15.31;100.00
9077;BME280;4574;51.072;17.174;2023-04-24T06:23:50;99023.31;;;15.32;100.00
9077;BME280;4574;51.072;17.174;2023-04-24T06:26:19;99026.59;;;15.34;100.00
9077;BME280;4574;51.072;17.174;2023-04-24T06:28:47;99027.63;;;15.33;100.00
9077;BME280;4574;51.072;17.174;2023-04-24T06:31:19;99019.63;;;15.33;100.00
9077;BME280;4574;51.072;17.174;2023-04-24T06:33:48;99027.41;;;15.35;100.00
9077;BME280;4574;51.072;17.174;2023-04-24T06:36:17;99026.38;;;15.36;100.00
9077;BME280;4574;51.072;17.174;2023-04-24T06:38:45;99028.44;;;15.34;99.29
9077;BME280;4574;51.072;17.174;2023-04-24T06:41:14;99017.59;;;15.35;100.00
9077;BME280;4574;51.072;17.174;2023-04-24T06:43:43;99027.44;;;15.41;100.00
9077;BME280;4574;51.072;17.174;2023-04-24T06:46:12;99028.03;;;15.43;100.00
9077;BME280;4574;51.072;17.174;2023-04-24T06:48:42;99019.63;;;15.46;99.32
9077;BME280;4574;51.072;17.174;2023-04-24T06:51:10;99023.53;;;15.50;99.10
9077;BME280;4574;51.072;17.174;2023-04-24T06:53:39;99017.97;;;15.52;99.74
9077;BME280;4574;51.072;17.174;2023-04-24T06:56:13;99012.66;;;15.45;100.00
9077;BME280;4574;51.072;17.174;2023-04-24T06:58:42;99020.03;;;15.56;99.23
9077;BME280;4574;51.072;17.174;2023-04-24T07:01:12;99023.91;;;15.60;98.10
9077;BME280;4574;51.072;17.174;2023-04-24T07:03:42;99020.22;;;15.61;99.55
9077;BME280;4574;51.072;17.174;2023-04-24T07:06:11;99021.22;;;15.67;100.00
9077;BME280;4574;51.072;17.174;2023-04-24T07:08:39;99023.69;;;15.68;99.53
9077;BME280;4574;51.072;17.174;2023-04-24T07:11:08;99022.88;;;15.68;99.61
9077;BME280;4574;51.072;17.174;2023-04-24T07:13:37;99021.22;;;15.67;100.00
9077;BME280;4574;51.072;17.174;2023-04-24T07:16:09;99018.38;;;15.68;100.00
9077;BME280;4574;51.072;17.174;2023-04-24T07:18:38;99022.88;;;15.74;100.00
9077;BME280;4574;51.072;17.174;2023-04-24T07:21:08;99021.63;;;15.83;100.00
9077;BME280;4574;51.072;17.174;2023-04-24T07:23:38;99024.06;;;15.91;99.61
9077;BME280;4574;51.072;17.174;2023-04-24T07:26:08;99012.53;;;15.97;98.56
9077;BME280;4574;51.072;17.174;2023-04-24T07:28:37;99013.34;;;16.04;99.41
9077;BME280;4574;51.072;17.174;2023-04-24T07:31:05;99014.31;;;16.16;97.78
9077;BME280;4574;51.072;17.174;2023-04-24T07:33:34;99017.38;;;16.26;96.54
9077;BME280;4574;51.072;17.174;2023-04-24T07:36:04;99015.69;;;16.38;96.45
9077;BME280;4574;51.072;17.174;2023-04-24T07:38:34;99014.84;;;16.44;95.96
9077;BME280;4574;51.072;17.174;2023-04-24T07:41:03;99009.88;;;16.54;95.73
9077;BME280;4574;51.072;17.174;2023-04-24T07:43:32;99021.09;;;16.69;94.46
9077;BME280;4574;51.072;17.174;2023-04-24T07:46:01;99019.03;;;16.71;93.28
9077;BME280;4574;51.072;17.174;2023-04-24T07:48:29;99025.16;;;16.78;93.45
9077;BME280;4574;51.072;17.174;2023-04-24T07:50:58;99022.88;;;16.81;94.38
9077;BME280;4574;51.072;17.174;2023-04-24T07:53:26;99023.69;;;16.82;94.87
9077;BME280;4574;51.072;17.174;2023-04-24T07:55:57;99031.50;;;16.83;93.31
9077;BME280;4574;51.072;17.174;2023-04-24T07:58:26;99029.84;;;16.82;93.88
9077;BME280;4574;51.072;17.174;2023-04-24T08:00:54;99032.53;;;16.82;93.93
9077;BME280;4574;51.072;17.174;2023-04-24T08:03:23;99030.50;;;16.78;93.38
9077;BME280;4574;51.072;17.174;2023-04-24T08:05:52;99034.81;;;16.79;91.32
9077;BME280;4574;51.072;17.174;2023-04-24T08:08:22;99029.88;;;16.76;92.55
9077;BME280;4574;51.072;17.174;2023-04-24T08:10:52;99037.91;;;16.76;91.23
9077;BME280;4574;51.072;17.174;2023-04-24T08:13:22;99029.72;;;16.71;91.49
9077;BME280;4574;51.072;17.174;2023-04-24T08:15:51;99040.19;;;16.72;92.81
9077;BME280;4574;51.072;17.174;2023-04-24T08:18:19;99051.69;;;16.73;92.27
9077;BME280;4574;51.072;17.174;2023-04-24T08:20:48;99040.94;;;16.48;92.71
9077;BME280;4574;51.072;17.174;2023-04-24T08:23:16;99032.94;;;16.42;94.28
9077;BME280;4574;51.072;17.174;2023-04-24T08:25:45;99041.56;;;16.44;96.74
9077;BME280;4574;51.072;17.174;2023-04-24T08:28:14;99036.25;;;16.31;98.91
9077;BME280;4574;51.072;17.174;2023-04-24T08:30:48;99035.03;;;16.27;100.00
9077;BME280;4574;51.072;17.174;2023-04-24T08:33:22;99039.19;;;16.16;100.00
9077;BME280;4574;51.072;17.174;2023-04-24T08:35:51;99034.88;;;16.09;100.00
9077;BME280;4574;51.072;17.174;2023-04-24T08:38:20;99032.59;;;16.19;100.00
9077;BME280;4574;51.072;17.174;2023-04-24T08:40:49;99041.59;;;16.31;100.00
9077;BME280;4574;51.072;17.174;2023-04-24T08:43:17;99037.28;;;16.36;100.00
9077;BME280;4574;51.072;17.174;2023-04-24T08:45:48;99039.91;;;16.43;100.00
9077;BME280;4574;51.072;17.174;2023-04-24T08:48:17;99035.59;;;16.48;100.00
9077;BME280;4574;51.072;17.174;2023-04-24T08:50:58;99041.94;;;16.54;100.00
9077;BME280;4574;51.072;17.174;2023-04-24T08:53:26;99050.97;;;16.59;100.00
9077;BME280;4574;51.072;17.174;2023-04-24T08:55:55;99049.34;;;16.52;100.00
9077;BME280;4574;51.072;17.174;2023-04-24T08:58:25;99038.28;;;16.48;100.00
9077;BME280;4574;51.072;17.174;2023-04-24T09:00:56;99041.75;;;16.49;100.00
9077;BME280;4574;51.072;17.174;2023-04-24T09:03:27;99044.22;;;16.50;100.00
9077;BME280;4574;51.072;17.174;2023-04-24T09:05:57;99037.63;;;16.53;100.00
9077;BME280;4574;51.072;17.174;2023-04-24T09:08:26;99045.63;;;16.59;100.00
9077;BME280;4574;51.072;17.174;2023-04-24T09:10:56;99050.53;;;16.62;100.00
9077;BME280;4574;51.072;17.174;2023-04-24T09:13:26;99056.66;;;16.69;100.00
9077;BME280;4574;51.072;17.174;2023-04-24T09:15:56;99046.75;;;16.76;100.00
9077;BME280;4574;51.072;17.174;2023-04-24T09:18:27;99047.97;;;16.80;100.00
9077;BME280;4574;51.072;17.174;2023-04-24T09:21:00;99051.97;;;16.96;100.00
9077;BME280;4574;51.072;17.174;2023-04-24T09:23:30;99055.00;;;17.06;99.38
9077;BME280;4574;51.072;17.174;2023-04-24T09:26:00;99046.72;;;17.14;98.13
9077;BME280;4574;51.072;17.174;2023-04-24T09:28:31;99051.81;;;17.22;97.93
9077;BME280;4574;51.072;17.174;2023-04-24T09:31:19;99047.19;;;17.35;98.60
9077;BME280;4574;51.072;17.174;2023-04-24T09:33:54;99042.19;;;17.45;97.88
9077;BME280;4574;51.072;17.174;2023-04-24T09:36:28;99040.06;;;17.53;96.10
9077;BME280;4574;51.072;17.174;2023-04-24T09:39:00;99040.06;;;17.53;96.22
9077;BME280;4574;51.072;17.174;2023-04-24T09:41:29;99041.28;;;17.51;94.53
9077;BME280;4574;51.072;17.174;2023-04-24T09:44:11;99025.47;;;17.50;95.44
9077;BME280;4574;51.072;17.174;2023-04-24T09:46:43;99029.94;;;17.55;95.91
9077;BME280;4574;51.072;17.174;2023-04-24T09:49:15;99023.13;;;17.59;96.29
9077;BME280;4574;51.072;17.174;2023-04-24T09:51:44;99021.84;;;17.62;96.67
9077;BME280;4574;51.072;17.174;2023-04-24T09:54:17;99016.06;;;17.65;95.94
9077;BME280;4574;51.072;17.174;2023-04-24T09:56:48;99020.16;;;17.67;96.42
9077;BME280;4574;51.072;17.174;2023-04-24T09:59:18;99016.22;;;17.70;95.83
9077;BME280;4574;51.072;17.174;2023-04-24T10:01:49;99006.50;;;17.75;96.36
9077;BME280;4574;51.072;17.174;2023-04-24T10:04:19;99012.59;;;17.82;95.68
9077;BME280;4574;51.072;17.174;2023-04-24T10:06:48;99008.44;;;17.86;95.81
9077;BME280;4574;51.072;17.174;2023-04-24T10:09:19;99014.81;;;17.85;94.63
9077;BME280;4574;51.072;17.174;2023-04-24T10:11:49;99014.63;;;17.87;95.22
9077;BME280;4574;51.072;17.174;2023-04-24T10:14:19;99015.03;;;17.84;94.10
9077;BME280;4574;51.072;17.174;2023-04-24T10:16:54;99012.59;;;17.82;95.30
9077;BME280;4574;51.072;17.174;2023-04-24T10:19:25;99007.25;;;17.82;94.71
9077;BME280;4574;51.072;17.174;2023-04-24T10:21:54;99013.84;;;17.80;93.45
9077;BME280;4574;51.072;17.174;2023-04-24T10:24:24;99007.28;;;17.76;92.65
9077;BME280;4574;51.072;17.174;2023-04-24T10:26:53;99005.75;;;17.68;92.68
9077;BME280;4574;51.072;17.174;2023-04-24T10:29:22;99005.91;;;17.73;92.40
9077;BME280;4574;51.072;17.174;2023-04-24T10:31:54;99016.75;;;17.78;93.64
9077;BME280;4574;51.072;17.174;2023-04-24T10:34:23;99013.34;;;17.89;93.90
9077;BME280;4574;51.072;17.174;2023-04-24T10:36:53;99012.41;;;18.02;94.63
9077;BME280;4574;51.072;17.174;2023-04-24T10:39:24;99012.84;;;18.17;93.86
9077;BME280;4574;51.072;17.174;2023-04-24T10:41:54;99015.75;;;18.33;94.20
9077;BME280;4574;51.072;17.174;2023-04-24T10:44:24;99016.94;;;18.37;93.82
9077;BME280;4574;51.072;17.174;2023-04-24T10:46:55;99009.19;;;18.29;93.85
9077;BME280;4574;51.072;17.174;2023-04-24T10:49:31;99020.06;;;18.34;92.44
9077;BME280;4574;51.072;17.174;2023-04-24T10:52:01;99021.56;;;18.30;91.86
9077;BME280;4574;51.072;17.174;2023-04-24T10:54:35;99019.59;;;18.19;91.46
9077;BME280;4574;51.072;17.174;2023-04-24T10:57:26;99020.50;;;18.13;91.08
9077;BME280;4574;51.072;17.174;2023-04-24T11:00:13;99015.13;;;18.13;90.86
9077;BME280;4574;51.072;17.174;2023-04-24T11:02:46;99014.78;;;18.10;92.04
9077;BME280;4574;51.072;17.174;2023-04-24T11:05:18;99015.13;;;18.13;88.92
9077;BME280;4574;51.072;17.174;2023-04-24T11:08:11;99011.19;;;18.16;89.92
9077;BME280;4574;51.072;17.174;2023-04-24T11:10:43;99006.28;;;18.13;89.28
9077;BME280;4574;51.072;17.174;2023-04-24T11:13:15;99014.22;;;18.19;88.72
9077;BME280;4574;51.072;17.174;2023-04-24T11:15:44;99017.03;;;18.31;90.02
9077;BME280;4574;51.072;17.174;2023-04-24T11:18:15;99006.56;;;18.59;86.98
9077;BME280;4574;51.072;17.174;2023-04-24T11:20:44;99012.69;;;18.77;85.69
9077;BME280;4574;51.072;17.174;2023-04-24T11:23:13;99007.88;;;18.97;84.33
9077;BME280;4574;51.072;17.174;2023-04-24T11:25:42;99018.34;;;18.98;84.50
9077;BME280;4574;51.072;17.174;2023-04-24T11:28:14;99009.13;;;18.94;83.85
9077;BME280;4574;51.072;17.174;2023-04-24T11:30:45;99018.59;;;18.97;83.55
9077;BME280;4574;51.072;17.174;2023-04-24T11:33:19;99018.59;;;18.97;84.13
9077;BME280;4574;51.072;17.174;2023-04-24T11:35:48;99020.38;;;19.03;84.62
9077;BME280;4574;51.072;17.174;2023-04-24T11:38:19;99004.47;;;19.01;83.84
9077;BME280;4574;51.072;17.174;2023-04-24T11:40:52;99011.25;;;19.04;84.95
9077;BME280;4574;51.072;17.174;2023-04-24T11:43:21;99012.19;;;18.98;84.67
9077;BME280;4574;51.072;17.174;2023-04-24T11:45:50;99014.94;;;18.91;84.02
9077;BME280;4574;51.072;17.174;2023-04-24T11:48:21;99015.88;;;18.86;85.24
9077;BME280;4574;51.072;17.174;2023-04-24T11:50:50;99017.28;;;18.88;85.58
9077;BME280;4574;51.072;17.174;2023-04-24T11:53:19;99013.09;;;18.92;86.03
9077;BME280;4574;51.072;17.174;2023-04-24T11:55:48;99016.00;;;18.90;85.42
9077;BME280;4574;51.072;17.174;2023-04-24T11:58:20;99018.34;;;18.87;85.99
9077;BME280;4574;51.072;17.174;2023-04-24T12:00:56;99018.81;;;18.66;85.36
9077;BME280;4574;51.072;17.174;2023-04-24T12:03:26;99017.16;;;18.65;85.60
9077;BME280;4574;51.072;17.174;2023-04-24T12:06:05;99005.78;;;18.70;85.97
9077;BME280;4574;51.072;17.174;2023-04-24T12:08:35;99008.59;;;18.75;86.54
9077;BME280;4574;51.072;17.174;2023-04-24T12:11:06;99006.97;;;18.74;86.61
9077;BME280;4574;51.072;17.174;2023-04-24T12:13:35;99005.56;;;18.71;86.97
9077;BME280;4574;51.072;17.174;2023-04-24T12:16:04;99004.22;;;18.62;87.59
9077;BME280;4574;51.072;17.174;2023-04-24T12:18:34;99006.25;;;18.67;87.49
9077;BME280;4574;51.072;17.174;2023-04-24T12:21:18;99004.09;;;18.57;87.40
9077;BME280;4574;51.072;17.174;2023-04-24T12:23:49;98995.59;;;18.60;87.49
9077;BME280;4574;51.072;17.174;2023-04-24T12:26:18;99004.94;;;18.69;87.16
9077;BME280;4574;51.072;17.174;2023-04-24T12:28:48;99007.78;;;18.74;86.73
9077;BME280;4574;51.072;17.174;2023-04-24T12:31:17;99007.41;;;18.71;85.96
9077;BME280;4574;51.072;17.174;2023-04-24T12:33:47;98995.97;;;18.64;85.03
9077;BME280;4574;51.072;17.174;2023-04-24T12:36:16;99002.72;;;18.66;86.04
9077;BME280;4574;51.072;17.174;2023-04-24T12:38:44;98992.69;;;18.62;86.18
9077;BME280;4574;51.072;17.174;2023-04-24T12:41:14;99002.69;;;18.55;86.67
9077;BME280;4574;51.072;17.174;2023-04-24T12:43:52;98992.81;;;18.37;87.08
9077;BME280;4574;51.072;17.174;2023-04-24T12:46:20;98995.13;;;18.34;87.42
9077;BME280;4574;51.072;17.174;2023-04-24T12:48:51;98991.94;;;18.25;87.80
9077;BME280;4574;51.072;17.174;2023-04-24T12:51:20;98994.81;;;18.24;88.24
9077;BME280;4574;51.072;17.174;2023-04-24T12:53:49;98987.84;;;18.23;88.00
9077;BME280;4574;51.072;17.174;2023-04-24T12:56:17;98990.88;;;18.26;88.17
9077;BME280;4574;51.072;17.174;2023-04-24T12:58:46;98981.44;;;18.24;88.21
9077;BME280;4574;51.072;17.174;2023-04-24T13:01:14;98979.56;;;18.24;88.23
9077;BME280;4574;51.072;17.174;2023-04-24T13:03:43;98985.53;;;18.26;88.20
9077;BME280;4574;51.072;17.174;2023-04-24T13:06:14;98982.84;;;18.26;88.41
9077;BME280;4574;51.072;17.174;2023-04-24T13:08:42;98978.47;;;18.14;88.82
9077;BME280;4574;51.072;17.174;2023-04-24T13:11:11;98974.34;;;18.11;89.19
9077;BME280;4574;51.072;17.174;2023-04-24T13:13:39;98964.53;;;18.05;90.17
9077;BME280;4574;51.072;17.174;2023-04-24T13:16:09;98977.78;;;18.00;89.99
9077;BME280;4574;51.072;17.174;2023-04-24T13:18:37;98977.44;;;17.97;90.99